sensor_id;sensor_type;location;lat;lon;timestamp;P1;durP1;ratioP1;P2;durP2;ratioP2
35026;SDS011;60696;51.426;6.934;2022-12-07T00:01:14;12.65;;;8.38;;
35026;SDS011;60696;51.426;6.934;2022-12-07T00:03:42;14.93;;;8.38;;
35026;SDS011;60696;51.426;6.934;2022-12-07T00:06:09;14.10;;;9.38;;
35026;SDS011;60696;51.426;6.934;2022-12-07T00:08:36;12.65;;;8.27;;
35026;SDS011;60696;51.426;6.934;2022-12-07T00:11:03;12.75;;;8.73;;
35026;SDS011;60696;51.426;6.934;2022-12-07T00:13:30;17.90;;;8.55;;
35026;SDS011;60696;51.426;6.934;2022-12-07T00:15:59;14.77;;;8.35;;
35026;SDS011;60696;51.426;6.934;2022-12-07T00:18:29;14.55;;;8.88;;
35026;SDS011;60696;51.426;6.934;2022-12-07T00:23:28;13.77;;;8.45;;
35026;SDS011;60696;51.426;6.934;2022-12-07T00:25:53;12.35;;;8.90;;
35026;SDS011;60696;51.426;6.934;2022-12-07T00:28:19;17.90;;;9.25;;
35026;SDS011;60696;51.426;6.934;2022-12-07T00:30:45;17.27;;;9.50;;
35026;SDS011;60696;51.426;6.934;2022-12-07T00:33:10;14.60;;;9.68;;
35026;SDS011;60696;51.426;6.934;2022-12-07T00:35:36;16.25;;;9.82;;
35026;SDS011;60696;51.426;6.934;2022-12-07T00:38:01;14.68;;;8.43;;
35026;SDS011;60696;51.426;6.934;2022-12-07T00:40:27;17.48;;;9.40;;
35026;SDS011;60696;51.426;6.934;2022-12-07T00:42:53;16.45;;;9.93;;
35026;SDS011;60696;51.426;6.934;2022-12-07T00:45:18;12.02;;;8.23;;
35026;SDS011;60696;51.426;6.934;2022-12-07T00:47:44;12.25;;;8.50;;
35026;SDS011;60696;51.426;6.934;2022-12-07T00:50:10;14.05;;;9.32;;
35026;SDS011;60696;51.426;6.934;2022-12-07T00:52:35;20.27;;;10.63;;
35026;SDS011;60696;51.426;6.934;2022-12-07T00:55:01;14.70;;;9.57;;
35026;SDS011;60696;51.426;6.934;2022-12-07T00:57:27;14.77;;;9.85;;
35026;SDS011;60696;51.426;6.934;2022-12-07T00:59:52;13.95;;;9.57;;
35026;SDS011;60696;51.426;6.934;2022-12-07T01:02:20;14.75;;;9.98;;
35026;SDS011;60696;51.426;6.934;2022-12-07T01:04:47;15.77;;;9.73;;
35026;SDS011;60696;51.426;6.934;2022-12-07T01:07:12;16.02;;;11.35;;
35026;SDS011;60696;51.426;6.934;2022-12-07T01:09:38;16.20;;;10.48;;
35026;SDS011;60696;51.426;6.934;2022-12-07T01:12:03;15.55;;;10.75;;
35026;SDS011;60696;51.426;6.934;2022-12-07T01:14:29;17.77;;;10.65;;
35026;SDS011;60696;51.426;6.934;2022-12-07T01:16:55;15.70;;;10.13;;
35026;SDS011;60696;51.426;6.934;2022-12-07T01:19:20;14.52;;;9.75;;
35026;SDS011;60696;51.426;6.934;2022-12-07T01:21:46;17.02;;;10.50;;
35026;SDS011;60696;51.426;6.934;2022-12-07T01:24:11;18.33;;;11.48;;
35026;SDS011;60696;51.426;6.934;2022-12-07T01:26:37;22.08;;;11.07;;
35026;SDS011;60696;51.426;6.934;2022-12-07T01:29:03;14.55;;;10.23;;
35026;SDS011;60696;51.426;6.934;2022-12-07T01:31:29;15.07;;;10.38;;
35026;SDS011;60696;51.426;6.934;2022-12-07T01:33:56;18.45;;;11.13;;
35026;SDS011;60696;51.426;6.934;2022-12-07T01:38:55;17.27;;;10.40;;
35026;SDS011;60696;51.426;6.934;2022-12-07T01:41:26;17.33;;;11.23;;
35026;SDS011;60696;51.426;6.934;2022-12-07T01:46:58;15.45;;;10.32;;
35026;SDS011;60696;51.426;6.934;2022-12-07T01:49:37;16.52;;;10.45;;
35026;SDS011;60696;51.426;6.934;2022-12-07T01:52:11;18.60;;;10.25;;
35026;SDS011;60696;51.426;6.934;2022-12-07T01:54:45;16.42;;;10.73;;
35026;SDS011;60696;51.426;6.934;2022-12-07T01:57:13;15.38;;;10.20;;
35026;SDS011;60696;51.426;6.934;2022-12-07T01:59:41;18.33;;;10.00;;
35026;SDS011;60696;51.426;6.934;2022-12-07T02:02:10;15.45;;;10.60;;
35026;SDS011;60696;51.426;6.934;2022-12-07T02:04:42;17.23;;;11.30;;
35026;SDS011;60696;51.426;6.934;2022-12-07T02:07:08;19.65;;;11.55;;
35026;SDS011;60696;51.426;6.934;2022-12-07T02:09:34;22.55;;;12.38;;
35026;SDS011;60696;51.426;6.934;2022-12-07T02:11:59;17.45;;;11.93;;
35026;SDS011;60696;51.426;6.934;2022-12-07T02:14:26;17.15;;;11.27;;
35026;SDS011;60696;51.426;6.934;2022-12-07T02:16:55;24.50;;;12.10;;
35026;SDS011;60696;51.426;6.934;2022-12-07T02:30:54;14.38;;;10.35;;
35026;SDS011;60696;51.426;6.934;2022-12-07T02:33:37;19.65;;;10.63;;
35026;SDS011;60696;51.426;6.934;2022-12-07T02:36:19;14.98;;;10.15;;
35026;SDS011;60696;51.426;6.934;2022-12-07T02:38:55;15.10;;;9.98;;
35026;SDS011;60696;51.426;6.934;2022-12-07T02:41:45;19.25;;;10.50;;
35026;SDS011;60696;51.426;6.934;2022-12-07T02:44:19;15.18;;;10.07;;
35026;SDS011;60696;51.426;6.934;2022-12-07T02:46:58;13.73;;;10.00;;
35026;SDS011;60696;51.426;6.934;2022-12-07T02:49:30;15.32;;;10.90;;
35026;SDS011;60696;51.426;6.934;2022-12-07T02:51:56;15.60;;;9.70;;
35026;SDS011;60696;51.426;6.934;2022-12-07T02:54:22;16.35;;;10.50;;
35026;SDS011;60696;51.426;6.934;2022-12-07T02:56:52;14.07;;;9.90;;
35026;SDS011;60696;51.426;6.934;2022-12-07T03:02:38;17.55;;;11.32;;
35026;SDS011;60696;51.426;6.934;2022-12-07T03:05:48;21.90;;;10.82;;
35026;SDS011;60696;51.426;6.934;2022-12-07T03:11:24;15.80;;;10.23;;
35026;SDS011;60696;51.426;6.934;2022-12-07T03:14:31;18.27;;;10.40;;
35026;SDS011;60696;51.426;6.934;2022-12-07T03:16:55;16.23;;;10.40;;
35026;SDS011;60696;51.426;6.934;2022-12-07T03:19:35;15.73;;;9.95;;
35026;SDS011;60696;51.426;6.934;2022-12-07T03:22:04;15.60;;;10.80;;
35026;SDS011;60696;51.426;6.934;2022-12-07T03:24:36;16.20;;;10.77;;
35026;SDS011;60696;51.426;6.934;2022-12-07T03:27:12;18.10;;;10.18;;
35026;SDS011;60696;51.426;6.934;2022-12-07T03:29:49;15.43;;;10.15;;
35026;SDS011;60696;51.426;6.934;2022-12-07T03:32:45;17.40;;;10.48;;
35026;SDS011;60696;51.426;6.934;2022-12-07T03:35:25;19.77;;;10.90;;
35026;SDS011;60696;51.426;6.934;2022-12-07T03:40:55;16.05;;;10.77;;
35026;SDS011;60696;51.426;6.934;2022-12-07T03:43:32;15.27;;;10.45;;
35026;SDS011;60696;51.426;6.934;2022-12-07T03:51:35;19.70;;;10.95;;
35026;SDS011;60696;51.426;6.934;2022-12-07T03:54:15;18.75;;;10.48;;
35026;SDS011;60696;51.426;6.934;2022-12-07T03:56:48;19.52;;;11.52;;
35026;SDS011;60696;51.426;6.934;2022-12-07T03:59:15;16.83;;;10.48;;
35026;SDS011;60696;51.426;6.934;2022-12-07T04:01:45;16.67;;;11.25;;
35026;SDS011;60696;51.426;6.934;2022-12-07T04:04:16;18.50;;;10.32;;
35026;SDS011;60696;51.426;6.934;2022-12-07T04:06:42;19.02;;;10.77;;
35026;SDS011;60696;51.426;6.934;2022-12-07T04:09:08;17.75;;;10.63;;
35026;SDS011;60696;51.426;6.934;2022-12-07T04:11:33;17.88;;;10.40;;
35026;SDS011;60696;51.426;6.934;2022-12-07T04:13:59;18.02;;;10.20;;
35026;SDS011;60696;51.426;6.934;2022-12-07T04:16:43;16.02;;;9.07;;
35026;SDS011;60696;51.426;6.934;2022-12-07T04:19:09;17.67;;;10.35;;
35026;SDS011;60696;51.426;6.934;2022-12-07T04:21:35;17.17;;;10.75;;
35026;SDS011;60696;51.426;6.934;2022-12-07T04:24:00;16.90;;;9.55;;
35026;SDS011;60696;51.426;6.934;2022-12-07T04:26:26;16.05;;;10.50;;
35026;SDS011;60696;51.426;6.934;2022-12-07T04:28:52;18.83;;;10.88;;
35026;SDS011;60696;51.426;6.934;2022-12-07T04:31:17;18.10;;;9.50;;
35026;SDS011;60696;51.426;6.934;2022-12-07T04:33:43;17.27;;;10.10;;
35026;SDS011;60696;51.426;6.934;2022-12-07T04:36:08;18.88;;;10.30;;
35026;SDS011;60696;51.426;6.934;2022-12-07T04:38:34;17.40;;;10.55;;
35026;SDS011;60696;51.426;6.934;2022-12-07T04:41:04;18.92;;;10.20;;
35026;SDS011;60696;51.426;6.934;2022-12-07T04:43:30;16.60;;;10.52;;
35026;SDS011;60696;51.426;6.934;2022-12-07T04:45:56;19.13;;;10.10;;
35026;SDS011;60696;51.426;6.934;2022-12-07T04:48:22;17.95;;;10.05;;
35026;SDS011;60696;51.426;6.934;2022-12-07T04:50:48;22.20;;;10.80;;
35026;SDS011;60696;51.426;6.934;2022-12-07T04:53:14;19.58;;;10.00;;
35026;SDS011;60696;51.426;6.934;2022-12-07T04:55:40;13.68;;;9.95;;
35026;SDS011;60696;51.426;6.934;2022-12-07T04:58:06;21.00;;;10.27;;
35026;SDS011;60696;51.426;6.934;2022-12-07T05:00:32;16.40;;;9.73;;
35026;SDS011;60696;51.426;6.934;2022-12-07T05:02:58;16.52;;;9.48;;
35026;SDS011;60696;51.426;6.934;2022-12-07T05:05:23;15.70;;;9.63;;
35026;SDS011;60696;51.426;6.934;2022-12-07T05:07:49;16.08;;;8.82;;
35026;SDS011;60696;51.426;6.934;2022-12-07T05:10:15;13.57;;;9.50;;
35026;SDS011;60696;51.426;6.934;2022-12-07T05:12:41;18.73;;;10.45;;
35026;SDS011;60696;51.426;6.934;2022-12-07T05:15:07;14.77;;;10.18;;
35026;SDS011;60696;51.426;6.934;2022-12-07T05:17:33;21.83;;;10.02;;
35026;SDS011;60696;51.426;6.934;2022-12-07T05:19:59;14.85;;;9.70;;
35026;SDS011;60696;51.426;6.934;2022-12-07T05:22:24;17.10;;;10.50;;
35026;SDS011;60696;51.426;6.934;2022-12-07T05:24:53;15.48;;;9.38;;
35026;SDS011;60696;51.426;6.934;2022-12-07T05:27:19;14.82;;;9.10;;
35026;SDS011;60696;51.426;6.934;2022-12-07T05:29:45;18.85;;;8.75;;
35026;SDS011;60696;51.426;6.934;2022-12-07T05:32:10;16.02;;;9.70;;
35026;SDS011;60696;51.426;6.934;2022-12-07T05:34:36;17.67;;;9.27;;
35026;SDS011;60696;51.426;6.934;2022-12-07T05:37:02;15.98;;;8.95;;
35026;SDS011;60696;51.426;6.934;2022-12-07T05:39:27;18.73;;;9.55;;
35026;SDS011;60696;51.426;6.934;2022-12-07T05:41:53;13.55;;;9.02;;
35026;SDS011;60696;51.426;6.934;2022-12-07T05:44:37;13.80;;;8.80;;
35026;SDS011;60696;51.426;6.934;2022-12-07T05:47:06;16.02;;;9.13;;
35026;SDS011;60696;51.426;6.934;2022-12-07T05:49:32;15.07;;;8.85;;
35026;SDS011;60696;51.426;6.934;2022-12-07T05:51:58;15.00;;;9.13;;
35026;SDS011;60696;51.426;6.934;2022-12-07T05:54:24;12.75;;;8.20;;
35026;SDS011;60696;51.426;6.934;2022-12-07T05:56:50;16.20;;;9.00;;
35026;SDS011;60696;51.426;6.934;2022-12-07T05:59:15;13.85;;;8.43;;
35026;SDS011;60696;51.426;6.934;2022-12-07T06:01:47;13.77;;;8.75;;
35026;SDS011;60696;51.426;6.934;2022-12-07T06:04:17;15.02;;;8.20;;
35026;SDS011;60696;51.426;6.934;2022-12-07T06:06:44;12.02;;;8.52;;
35026;SDS011;60696;51.426;6.934;2022-12-07T06:09:09;19.48;;;8.20;;
35026;SDS011;60696;51.426;6.934;2022-12-07T06:11:35;16.85;;;8.75;;
35026;SDS011;60696;51.426;6.934;2022-12-07T06:14:20;14.38;;;8.18;;
35026;SDS011;60696;51.426;6.934;2022-12-07T06:16:46;14.88;;;7.90;;
35026;SDS011;60696;51.426;6.934;2022-12-07T06:19:11;13.13;;;7.40;;
35026;SDS011;60696;51.426;6.934;2022-12-07T06:21:37;11.93;;;7.28;;
35026;SDS011;60696;51.426;6.934;2022-12-07T06:24:03;12.82;;;7.78;;
35026;SDS011;60696;51.426;6.934;2022-12-07T06:26:29;13.73;;;7.28;;
35026;SDS011;60696;51.426;6.934;2022-12-07T06:28:54;12.90;;;7.47;;
35026;SDS011;60696;51.426;6.934;2022-12-07T06:31:20;14.77;;;7.32;;
35026;SDS011;60696;51.426;6.934;2022-12-07T06:33:46;14.40;;;7.88;;
35026;SDS011;60696;51.426;6.934;2022-12-07T06:36:11;11.52;;;6.68;;
35026;SDS011;60696;51.426;6.934;2022-12-07T06:38:37;13.02;;;7.15;;
35026;SDS011;60696;51.426;6.934;2022-12-07T06:41:03;12.73;;;7.18;;
35026;SDS011;60696;51.426;6.934;2022-12-07T06:43:28;14.15;;;7.50;;
35026;SDS011;60696;51.426;6.934;2022-12-07T06:45:54;11.13;;;7.05;;
35026;SDS011;60696;51.426;6.934;2022-12-07T06:48:20;12.88;;;7.20;;
35026;SDS011;60696;51.426;6.934;2022-12-07T06:50:46;16.08;;;7.32;;
35026;SDS011;60696;51.426;6.934;2022-12-07T06:53:12;15.88;;;6.80;;
35026;SDS011;60696;51.426;6.934;2022-12-07T06:55:38;10.35;;;6.45;;
35026;SDS011;60696;51.426;6.934;2022-12-07T06:58:04;15.15;;;6.97;;
35026;SDS011;60696;51.426;6.934;2022-12-07T07:00:30;18.60;;;6.70;;
35026;SDS011;60696;51.426;6.934;2022-12-07T07:02:55;13.95;;;6.90;;
35026;SDS011;60696;51.426;6.934;2022-12-07T07:05:21;12.40;;;6.25;;
35026;SDS011;60696;51.426;6.934;2022-12-07T07:07:47;12.48;;;6.30;;
35026;SDS011;60696;51.426;6.934;2022-12-07T07:10:13;15.05;;;7.05;;
35026;SDS011;60696;51.426;6.934;2022-12-07T07:12:39;16.10;;;6.25;;
35026;SDS011;60696;51.426;6.934;2022-12-07T07:15:05;8.65;;;6.00;;
35026;SDS011;60696;51.426;6.934;2022-12-07T07:17:30;11.63;;;6.10;;
35026;SDS011;60696;51.426;6.934;2022-12-07T07:19:56;14.35;;;6.63;;
35026;SDS011;60696;51.426;6.934;2022-12-07T07:22:22;16.83;;;6.32;;
35026;SDS011;60696;51.426;6.934;2022-12-07T07:24:47;12.23;;;6.03;;
35026;SDS011;60696;51.426;6.934;2022-12-07T07:27:13;11.65;;;6.18;;
35026;SDS011;60696;51.426;6.934;2022-12-07T07:29:38;12.45;;;5.70;;
35026;SDS011;60696;51.426;6.934;2022-12-07T07:32:04;14.02;;;5.90;;
35026;SDS011;60696;51.426;6.934;2022-12-07T07:34:29;11.68;;;6.07;;
35026;SDS011;60696;51.426;6.934;2022-12-07T07:36:55;9.80;;;5.68;;
35026;SDS011;60696;51.426;6.934;2022-12-07T07:39:21;9.25;;;5.97;;
35026;SDS011;60696;51.426;6.934;2022-12-07T07:41:46;12.93;;;6.45;;
35026;SDS011;60696;51.426;6.934;2022-12-07T07:44:12;13.20;;;6.82;;
35026;SDS011;60696;51.426;6.934;2022-12-07T07:46:37;10.30;;;6.80;;
35026;SDS011;60696;51.426;6.934;2022-12-07T07:49:03;12.98;;;7.13;;
35026;SDS011;60696;51.426;6.934;2022-12-07T07:51:29;10.70;;;6.15;;
35026;SDS011;60696;51.426;6.934;2022-12-07T07:53:54;12.73;;;6.45;;
35026;SDS011;60696;51.426;6.934;2022-12-07T07:56:20;11.50;;;6.25;;
35026;SDS011;60696;51.426;6.934;2022-12-07T07:58:45;15.48;;;6.65;;
35026;SDS011;60696;51.426;6.934;2022-12-07T08:01:11;12.15;;;6.57;;
35026;SDS011;60696;51.426;6.934;2022-12-07T08:03:38;16.30;;;7.18;;
35026;SDS011;60696;51.426;6.934;2022-12-07T08:06:04;12.32;;;6.60;;
35026;SDS011;60696;51.426;6.934;2022-12-07T08:08:30;10.82;;;7.03;;
35026;SDS011;60696;51.426;6.934;2022-12-07T08:10:55;12.38;;;6.35;;
35026;SDS011;60696;51.426;6.934;2022-12-07T08:13:21;13.88;;;7.15;;
35026;SDS011;60696;51.426;6.934;2022-12-07T08:15:47;13.85;;;6.63;;
35026;SDS011;60696;51.426;6.934;2022-12-07T08:18:13;12.90;;;6.18;;
35026;SDS011;60696;51.426;6.934;2022-12-07T08:20:40;13.60;;;6.40;;
35026;SDS011;60696;51.426;6.934;2022-12-07T08:23:06;10.60;;;6.22;;
35026;SDS011;60696;51.426;6.934;2022-12-07T08:25:33;9.80;;;6.13;;
35026;SDS011;60696;51.426;6.934;2022-12-07T08:27:59;10.85;;;5.95;;
35026;SDS011;60696;51.426;6.934;2022-12-07T08:30:26;11.32;;;5.63;;
35026;SDS011;60696;51.426;6.934;2022-12-07T08:32:52;8.10;;;5.53;;
35026;SDS011;60696;51.426;6.934;2022-12-07T08:35:18;9.45;;;5.60;;
35026;SDS011;60696;51.426;6.934;2022-12-07T08:37:43;10.65;;;5.85;;
35026;SDS011;60696;51.426;6.934;2022-12-07T08:40:10;10.43;;;4.75;;
35026;SDS011;60696;51.426;6.934;2022-12-07T08:42:40;13.82;;;5.78;;
35026;SDS011;60696;51.426;6.934;2022-12-07T08:45:11;8.32;;;5.20;;
35026;SDS011;60696;51.426;6.934;2022-12-07T08:47:40;12.20;;;6.07;;
35026;SDS011;60696;51.426;6.934;2022-12-07T08:52:36;9.95;;;5.03;;
35026;SDS011;60696;51.426;6.934;2022-12-07T08:55:03;9.32;;;4.95;;
35026;SDS011;60696;51.426;6.934;2022-12-07T08:57:29;8.93;;;4.72;;
35026;SDS011;60696;51.426;6.934;2022-12-07T08:59:57;9.55;;;4.75;;
35026;SDS011;60696;51.426;6.934;2022-12-07T09:02:22;11.05;;;5.18;;
35026;SDS011;60696;51.426;6.934;2022-12-07T09:04:48;6.68;;;4.20;;
35026;SDS011;60696;51.426;6.934;2022-12-07T09:07:14;7.00;;;4.47;;
35026;SDS011;60696;51.426;6.934;2022-12-07T09:09:40;7.90;;;4.35;;
35026;SDS011;60696;51.426;6.934;2022-12-07T09:12:06;12.30;;;4.53;;
35026;SDS011;60696;51.426;6.934;2022-12-07T09:14:32;8.27;;;4.50;;
35026;SDS011;60696;51.426;6.934;2022-12-07T09:17:08;9.13;;;4.38;;
35026;SDS011;60696;51.426;6.934;2022-12-07T09:19:34;11.38;;;4.38;;
35026;SDS011;60696;51.426;6.934;2022-12-07T09:22:01;8.80;;;5.07;;
35026;SDS011;60696;51.426;6.934;2022-12-07T09:24:27;7.25;;;4.90;;
35026;SDS011;60696;51.426;6.934;2022-12-07T09:26:52;8.82;;;4.55;;
35026;SDS011;60696;51.426;6.934;2022-12-07T09:29:18;13.73;;;4.85;;
35026;SDS011;60696;51.426;6.934;2022-12-07T09:31:43;11.93;;;4.32;;
35026;SDS011;60696;51.426;6.934;2022-12-07T09:34:09;10.15;;;4.63;;
35026;SDS011;60696;51.426;6.934;2022-12-07T09:36:35;9.45;;;4.38;;
35026;SDS011;60696;51.426;6.934;2022-12-07T09:39:00;4.45;;;3.30;;
35026;SDS011;60696;51.426;6.934;2022-12-07T09:41:27;8.48;;;4.07;;
35026;SDS011;60696;51.426;6.934;2022-12-07T09:43:59;7.32;;;3.63;;
35026;SDS011;60696;51.426;6.934;2022-12-07T09:46:39;8.25;;;4.22;;
35026;SDS011;60696;51.426;6.934;2022-12-07T09:49:28;7.38;;;3.97;;
35026;SDS011;60696;51.426;6.934;2022-12-07T09:54:34;8.00;;;3.72;;
35026;SDS011;60696;51.426;6.934;2022-12-07T09:57:01;13.40;;;3.83;;
35026;SDS011;60696;51.426;6.934;2022-12-07T09:59:27;11.18;;;3.75;;
35026;SDS011;60696;51.426;6.934;2022-12-07T10:01:53;7.80;;;4.03;;
35026;SDS011;60696;51.426;6.934;2022-12-07T10:04:24;9.73;;;3.83;;
35026;SDS011;60696;51.426;6.934;2022-12-07T10:06:50;4.55;;;3.40;;
35026;SDS011;60696;51.426;6.934;2022-12-07T10:09:17;7.60;;;3.90;;
35026;SDS011;60696;51.426;6.934;2022-12-07T10:14:36;6.57;;;3.72;;
35026;SDS011;60696;51.426;6.934;2022-12-07T10:20:08;7.38;;;3.95;;
35026;SDS011;60696;51.426;6.934;2022-12-07T10:22:36;6.47;;;3.20;;
35026;SDS011;60696;51.426;6.934;2022-12-07T10:25:08;7.65;;;3.38;;
35026;SDS011;60696;51.426;6.934;2022-12-07T10:27:44;9.60;;;3.22;;
35026;SDS011;60696;51.426;6.934;2022-12-07T10:30:23;4.05;;;2.65;;
35026;SDS011;60696;51.426;6.934;2022-12-07T10:32:49;5.63;;;2.78;;
35026;SDS011;60696;51.426;6.934;2022-12-07T10:35:25;6.00;;;2.47;;
35026;SDS011;60696;51.426;6.934;2022-12-07T10:37:55;6.72;;;2.50;;
35026;SDS011;60696;51.426;6.934;2022-12-07T10:40:25;4.70;;;2.38;;
35026;SDS011;60696;51.426;6.934;2022-12-07T10:58:24;6.05;;;2.50;;
35026;SDS011;60696;51.426;6.934;2022-12-07T11:00:43;4.07;;;2.22;;
35026;SDS011;60696;51.426;6.934;2022-12-07T11:03:44;7.25;;;2.30;;
35026;SDS011;60696;51.426;6.934;2022-12-07T11:06:16;4.90;;;2.25;;
35026;SDS011;60696;51.426;6.934;2022-12-07T11:09:00;4.63;;;2.38;;
35026;SDS011;60696;51.426;6.934;2022-12-07T11:11:49;3.42;;;1.98;;
35026;SDS011;60696;51.426;6.934;2022-12-07T11:20:29;8.40;;;2.90;;
35026;SDS011;60696;51.426;6.934;2022-12-07T11:23:13;6.00;;;2.55;;
35026;SDS011;60696;51.426;6.934;2022-12-07T11:26:09;7.18;;;3.08;;
35026;SDS011;60696;51.426;6.934;2022-12-07T11:29:24;3.85;;;2.28;;
35026;SDS011;60696;51.426;6.934;2022-12-07T11:37:43;9.80;;;2.28;;
35026;SDS011;60696;51.426;6.934;2022-12-07T11:43:31;6.07;;;2.88;;
35026;SDS011;60696;51.426;6.934;2022-12-07T11:45:31;6.82;;;2.88;;
35026;SDS011;60696;51.426;6.934;2022-12-07T11:48:03;9.23;;;3.10;;
35026;SDS011;60696;51.426;6.934;2022-12-07T11:55:59;9.77;;;2.70;;
35026;SDS011;60696;51.426;6.934;2022-12-07T12:06:32;3.60;;;1.90;;
35026;SDS011;60696;51.426;6.934;2022-12-07T12:11:50;6.90;;;2.20;;
35026;SDS011;60696;51.426;6.934;2022-12-07T12:24:37;4.07;;;2.22;;
35026;SDS011;60696;51.426;6.934;2022-12-07T12:29:54;5.20;;;2.25;;
35026;SDS011;60696;51.426;6.934;2022-12-07T12:32:24;6.95;;;2.10;;
35026;SDS011;60696;51.426;6.934;2022-12-07T12:42:47;6.32;;;2.08;;
35026;SDS011;60696;51.426;6.934;2022-12-07T12:45:27;3.92;;;2.15;;
35026;SDS011;60696;51.426;6.934;2022-12-07T12:50:36;8.65;;;2.22;;
35026;SDS011;60696;51.426;6.934;2022-12-07T12:58:28;6.13;;;2.35;;
35026;SDS011;60696;51.426;6.934;2022-12-07T13:04:00;4.50;;;1.77;;
35026;SDS011;60696;51.426;6.934;2022-12-07T13:08:53;9.15;;;2.05;;
35026;SDS011;60696;51.426;6.934;2022-12-07T13:11:29;8.98;;;2.28;;
35026;SDS011;60696;51.426;6.934;2022-12-07T13:17:01;3.67;;;1.40;;
35026;SDS011;60696;51.426;6.934;2022-12-07T13:19:52;6.20;;;1.88;;
35026;SDS011;60696;51.426;6.934;2022-12-07T13:25:11;7.10;;;1.60;;
35026;SDS011;60696;51.426;6.934;2022-12-07T13:28:01;7.63;;;1.55;;
35026;SDS011;60696;51.426;6.934;2022-12-07T13:30:38;8.32;;;1.60;;
35026;SDS011;60696;51.426;6.934;2022-12-07T13:33:14;3.45;;;1.40;;
35026;SDS011;60696;51.426;6.934;2022-12-07T13:35:42;5.50;;;1.40;;
35026;SDS011;60696;51.426;6.934;2022-12-07T13:41:18;3.25;;;1.30;;
35026;SDS011;60696;51.426;6.934;2022-12-07T13:43:53;6.15;;;1.50;;
35026;SDS011;60696;51.426;6.934;2022-12-07T13:49:19;7.13;;;1.70;;
35026;SDS011;60696;51.426;6.934;2022-12-07T13:51:46;11.25;;;1.80;;
35026;SDS011;60696;51.426;6.934;2022-12-07T13:54:12;4.35;;;1.42;;
35026;SDS011;60696;51.426;6.934;2022-12-07T13:56:39;3.30;;;1.30;;
35026;SDS011;60696;51.426;6.934;2022-12-07T13:59:09;4.70;;;1.40;;
35026;SDS011;60696;51.426;6.934;2022-12-07T14:01:46;6.20;;;1.63;;
35026;SDS011;60696;51.426;6.934;2022-12-07T14:04:16;8.13;;;1.60;;
35026;SDS011;60696;51.426;6.934;2022-12-07T14:06:47;4.85;;;1.73;;
35026;SDS011;60696;51.426;6.934;2022-12-07T14:09:17;3.53;;;1.60;;
35026;SDS011;60696;51.426;6.934;2022-12-07T14:11:44;4.70;;;1.95;;
35026;SDS011;60696;51.426;6.934;2022-12-07T14:14:17;9.88;;;2.25;;
35026;SDS011;60696;51.426;6.934;2022-12-07T14:16:54;5.07;;;2.08;;
35026;SDS011;60696;51.426;6.934;2022-12-07T14:19:44;4.97;;;2.50;;
35026;SDS011;60696;51.426;6.934;2022-12-07T14:24:50;9.60;;;2.60;;
35026;SDS011;60696;51.426;6.934;2022-12-07T14:27:23;7.97;;;2.22;;
35026;SDS011;60696;51.426;6.934;2022-12-07T14:29:55;5.50;;;2.55;;
35026;SDS011;60696;51.426;6.934;2022-12-07T14:32:24;6.57;;;2.67;;
35026;SDS011;60696;51.426;6.934;2022-12-07T14:34:59;7.30;;;2.10;;
35026;SDS011;60696;51.426;6.934;2022-12-07T14:37:28;3.80;;;1.98;;
35026;SDS011;60696;51.426;6.934;2022-12-07T14:39:55;6.88;;;1.98;;
35026;SDS011;60696;51.426;6.934;2022-12-07T14:42:21;10.80;;;2.50;;
35026;SDS011;60696;51.426;6.934;2022-12-07T14:44:50;6.43;;;2.65;;
35026;SDS011;60696;51.426;6.934;2022-12-07T14:47:15;6.00;;;1.92;;
35026;SDS011;60696;51.426;6.934;2022-12-07T14:49:41;2.58;;;1.60;;
35026;SDS011;60696;51.426;6.934;2022-12-07T14:52:09;4.20;;;2.17;;
35026;SDS011;60696;51.426;6.934;2022-12-07T14:54:55;8.23;;;1.77;;
35026;SDS011;60696;51.426;6.934;2022-12-07T14:57:20;3.50;;;1.50;;
35026;SDS011;60696;51.426;6.934;2022-12-07T14:59:46;6.93;;;1.80;;
35026;SDS011;60696;51.426;6.934;2022-12-07T15:02:14;8.50;;;1.77;;
35026;SDS011;60696;51.426;6.934;2022-12-07T15:04:40;4.72;;;1.77;;
35026;SDS011;60696;51.426;6.934;2022-12-07T15:07:09;3.65;;;1.60;;
35026;SDS011;60696;51.426;6.934;2022-12-07T15:09:43;3.13;;;1.48;;
35026;SDS011;60696;51.426;6.934;2022-12-07T15:12:08;5.60;;;1.80;;
35026;SDS011;60696;51.426;6.934;2022-12-07T15:14:34;3.65;;;1.45;;
35026;SDS011;60696;51.426;6.934;2022-12-07T15:17:00;4.15;;;1.60;;
35026;SDS011;60696;51.426;6.934;2022-12-07T15:19:25;10.68;;;1.85;;
35026;SDS011;60696;51.426;6.934;2022-12-07T15:21:52;5.10;;;1.67;;
35026;SDS011;60696;51.426;6.934;2022-12-07T15:24:18;7.05;;;1.70;;
35026;SDS011;60696;51.426;6.934;2022-12-07T15:26:45;8.82;;;1.63;;
35026;SDS011;60696;51.426;6.934;2022-12-07T15:29:11;6.10;;;1.70;;
35026;SDS011;60696;51.426;6.934;2022-12-07T15:31:37;11.65;;;2.42;;
35026;SDS011;60696;51.426;6.934;2022-12-07T15:34:03;3.08;;;1.58;;
35026;SDS011;60696;51.426;6.934;2022-12-07T15:36:30;5.93;;;2.00;;
35026;SDS011;60696;51.426;6.934;2022-12-07T15:38:56;6.20;;;2.08;;
35026;SDS011;60696;51.426;6.934;2022-12-07T15:41:22;4.95;;;1.50;;
35026;SDS011;60696;51.426;6.934;2022-12-07T15:43:48;6.95;;;2.47;;
35026;SDS011;60696;51.426;6.934;2022-12-07T15:46:33;4.63;;;2.00;;
35026;SDS011;60696;51.426;6.934;2022-12-07T15:49:06;3.13;;;1.50;;
35026;SDS011;60696;51.426;6.934;2022-12-07T15:51:35;8.53;;;2.30;;
35026;SDS011;60696;51.426;6.934;2022-12-07T15:54:00;5.10;;;1.67;;
35026;SDS011;60696;51.426;6.934;2022-12-07T15:56:26;5.60;;;2.08;;
35026;SDS011;60696;51.426;6.934;2022-12-07T15:58:51;6.10;;;1.92;;
35026;SDS011;60696;51.426;6.934;2022-12-07T16:01:17;8.55;;;2.72;;
35026;SDS011;60696;51.426;6.934;2022-12-07T16:03:44;6.78;;;2.00;;
35026;SDS011;60696;51.426;6.934;2022-12-07T16:06:11;7.63;;;2.78;;
35026;SDS011;60696;51.426;6.934;2022-12-07T16:08:41;5.07;;;1.95;;
35026;SDS011;60696;51.426;6.934;2022-12-07T16:11:08;6.45;;;2.30;;
35026;SDS011;60696;51.426;6.934;2022-12-07T16:13:34;8.30;;;2.47;;
35026;SDS011;60696;51.426;6.934;2022-12-07T16:16:04;9.23;;;2.20;;
35026;SDS011;60696;51.426;6.934;2022-12-07T16:18:30;5.35;;;2.13;;
35026;SDS011;60696;51.426;6.934;2022-12-07T16:20:56;5.65;;;1.90;;
35026;SDS011;60696;51.426;6.934;2022-12-07T16:23:22;6.78;;;2.13;;
35026;SDS011;60696;51.426;6.934;2022-12-07T16:25:47;5.63;;;2.20;;
35026;SDS011;60696;51.426;6.934;2022-12-07T16:28:13;6.07;;;2.40;;
35026;SDS011;60696;51.426;6.934;2022-12-07T16:30:38;6.72;;;2.10;;
35026;SDS011;60696;51.426;6.934;2022-12-07T16:33:04;10.05;;;2.63;;
35026;SDS011;60696;51.426;6.934;2022-12-07T16:35:29;5.53;;;2.30;;
35026;SDS011;60696;51.426;6.934;2022-12-07T16:37:55;10.18;;;2.72;;
35026;SDS011;60696;51.426;6.934;2022-12-07T16:40:21;7.13;;;2.72;;
35026;SDS011;60696;51.426;6.934;2022-12-07T16:42:46;10.50;;;2.78;;
35026;SDS011;60696;51.426;6.934;2022-12-07T16:45:12;5.22;;;2.35;;
35026;SDS011;60696;51.426;6.934;2022-12-07T16:47:38;5.30;;;3.00;;
35026;SDS011;60696;51.426;6.934;2022-12-07T16:50:04;7.72;;;3.30;;
35026;SDS011;60696;51.426;6.934;2022-12-07T16:52:30;3.65;;;2.10;;
35026;SDS011;60696;51.426;6.934;2022-12-07T16:54:56;7.75;;;3.40;;
35026;SDS011;60696;51.426;6.934;2022-12-07T16:57:21;14.05;;;3.35;;
35026;SDS011;60696;51.426;6.934;2022-12-07T16:59:47;8.60;;;3.60;;
35026;SDS011;60696;51.426;6.934;2022-12-07T17:02:13;10.27;;;3.50;;
35026;SDS011;60696;51.426;6.934;2022-12-07T17:04:38;10.02;;;3.78;;
35026;SDS011;60696;51.426;6.934;2022-12-07T17:07:07;8.32;;;3.97;;
35026;SDS011;60696;51.426;6.934;2022-12-07T17:09:34;14.38;;;4.07;;